Home > Products > Valid Products > TAF

000
FTUS41 KGYX 261834 AAA
TAFLEB
TAF AMD
KLEB 261834Z 2619/2718 02005KT 1/2SM SN FZFG VV002
     FM262000 36008KT 1/2SM SN FZFG VV002
     FM270200 34010KT 2SM -SN BLSN BR BKN008 OVC012
     FM270600 34007KT 5SM -SHSN BR SCT015 BKN025 OVC040
     FM271200 34005KT P6SM SCT025 BKN045 OVC060=



000
FTUS41 KGYX 261728
TAFLEB
TAF
KLEB 261728Z 2618/2718 02005KT 1 1/2SM -SN BR BKN015 OVC025
      TEMPO 2618/2620 1/2SM SN FG BKN008 OVC012
     FM262000 36008KT 1/2SM SN FZFG VV006
     FM270200 34010KT 2SM -SN BLSN BR BKN008 OVC012
     FM270600 34007KT 5SM -SHSN BR SCT015 BKN025 OVC040
     FM271200 34005KT P6SM SCT025 BKN045 OVC060=



000
FTUS41 KGYX 261728
TAFPSM
TAF
KPSM 261728Z 2618/2718 36008KT 1SM -SN BKN006 OVC012
      TEMPO 2618/2620 1/2SM SN FG VV003
     FM262000 02012G22KT 1/2SM SN FG VV003
     FM262300 01017G27KT 1/4SM +SN FG VV002
     FM270300 36020G32KT 1SM -SN BR OVC006
     FM270800 32012KT P6SM -SHSN SCT025 BKN040 OVC060
     FM271200 31009KT P6SM SCT050 BKN080=



000
FTUS41 KGYX 261728
TAFPWM
TAF
KPWM 261728Z 2618/2718 02010G18KT 1/2SM SN FG SCT007 BKN015 OVC025
      TEMPO 2618/2620 1/4SM SNPL FG VV007
     FM262000 02014G26KT 1/4SM +SN FG VV002
     FM262300 01020G32KT 1/4SM +SN FZFG VV001
     FM270500 34018G28KT 1 1/2SM -SN BLSN BR OVC007
     FM271000 32010KT P6SM -SHSN BKN025 OVC040
     FM271400 32009KT P6SM BKN050 OVC080=



000
FTUS41 KGYX 261728
TAFAUG
TAF
KAUG 261728Z 2618/2718 01013G20KT P6SM -SHSN BKN050 OVC080
      TEMPO 2618/2620 1SM -SN BR BKN015 OVC040
     FM262000 01014G24KT 1/2SM SN FZFG VV006
     FM262200 01016G26KT 1/4SM +SN FZFG VV001
     FM270700 36018G28KT 1SM -SN BLSN BR OVC005
     FM271000 35014G22KT 5SM -SHSN BLSN BR BKN020 OVC040
     FM271400 34010KT P6SM BKN040 OVC080=



000
FTUS41 KGYX 261728
TAFCON
TAF
KCON 261728Z 2618/2718 34006KT 1/4SM +SN FZFG VV004
      TEMPO 2618/2620 1SM -SN BR VV007
     FM270000 34014G26KT 1/2SM SN BLSN FZFG VV006
     FM270300 34017G27KT 1SM -SN BR BKN008 OVC012
     FM270900 32011KT 5SM -SHSN BR BKN025 OVC040
     FM271400 32005KT P6SM BKN045 OVC070=



000
FTUS41 KGYX 261634 AAA
TAFPSM
TAF AMD
KPSM 261634Z 2617/2712 01009KT 2SM -RASN SCT008 OVC012
      TEMPO 2617/2619 1/2SM SN FG VV007
     FM261900 02012G22KT 1/2SM SN FG VV003
     FM262300 01017G27KT 1/2SM SN FG OVC004
     FM270300 36015G22KT 2SM -SN BR OVC006
     FM270800 32012KT P6SM -SHSN BKN025=



000
FTUS41 KGYX 261631 AAB
TAFPWM
TAF AMD
KPWM 261631Z 2617/2712 02010G18KT 6SM -RASNPL BKN015 OVC025
      TEMPO 2617/2619 3/4SM -SN VV007
     FM261900 02016G26KT 1/2SM SN FG OVC004
     FM270300 36018G28KT 2SM -SN BLSN BR OVC007
     FM270900 34014KT P6SM -SHSN BKN025=



000
FTUS41 KGYX 261559 AAA
TAFAUG
TAF AMD
KAUG 261559Z 2616/2712 01012G18KT P6SM OVC100
     FM261800 01013G20KT 5SM -SN BR BKN050 OVC080
     FM262100 01015G25KT 1/2SM SN FZFG OVC003
     FM270500 36018G28KT 2SM -SN BLSN BR OVC005
     FM271000 35014G22KT 5SM -SHSN BLSN BR BKN020=



000
FTUS41 KGYX 261557 AAA
TAFCON
TAF AMD
KCON 261557Z 2616/2712 01008KT 1SM -SN BR BKN015 OVC025
      TEMPO 2616/2620 1/2SM SN FG VV007
     FM262000 36011KT 1/4SM +SN FZFG VV003
     FM270300 34014G26KT 2SM -SN BLSN BR OVC008
     FM270800 33011KT 5SM -SHSN BR OVC020=



000
FTUS41 KGYX 261458 AAA
TAFPWM
TAF AMD
KPWM 261458Z 2615/2712 02012G20KT P6SM BKN080 OVC100
     FM261700 02010KT 6SM -RASN OVC035
     FM262000 02016G26KT 1/2SM SN FG OVC004
     FM270300 36018G28KT 2SM -SN BLSN BR OVC007
     FM270900 34014KT P6SM -SHSN BKN025=



000
FTUS41 KGYX 261124
TAFCON
TAF
KCON 261124Z 2612/2712 VRB03KT P6SM OVC120
     FM261700 01008KT 2SM -SN BR OVC015
     FM262000 36011KT 1/4SM +SN FZFG VV003
     FM270300 34014G26KT 2SM -SN BLSN BR OVC008
     FM270800 33011KT 5SM -SHSN BR OVC020=



000
FTUS41 KGYX 261124
TAFPSM
TAF
KPSM 261124Z 2612/2712 31005KT P6SM OVC100
     FM261600 02009KT 6SM -RASN OVC030
     FM261900 02012G22KT 1/2SM SNRA FG OVC005
     FM262300 01017G27KT 1/2SM SN FG OVC004
     FM270300 36015G22KT 2SM -SN BR OVC006
     FM270800 32012KT P6SM -SHSN BKN025=



000
FTUS41 KGYX 261124
TAFPWM
TAF
KPWM 261124Z 2612/2712 28005KT P6SM OVC120
     FM261700 02010KT 6SM -RASN OVC035
     FM262000 02016G26KT 1/2SM SN FG OVC004
     FM270300 36018G28KT 2SM -SN BLSN BR OVC007
     FM270900 34014KT P6SM -SHSN BKN025=



000
FTUS41 KGYX 261124
TAFAUG
TAF
KAUG 261124Z 2612/2712 34005KT P6SM OVC150
     FM261800 01010KT 5SM -SN BR OVC035
     FM262100 01015G25KT 1/2SM SN FZFG OVC003
     FM270500 36018G28KT 2SM -SN BLSN BR OVC005
     FM271000 35014G22KT 5SM -SHSN BLSN BR BKN020=



000
FTUS41 KGYX 261124
TAFLEB
TAF
KLEB 261124Z 2612/2712 VRB03KT P6SM SCT035 OVC100
     FM261700 36005KT 2SM -SN BR OVC015
     FM262000 36008G16KT 1/2SM SN FZFG OVC006
     FM270200 35010G18KT 3SM -SN BLSN BR OVC012
     FM271000 34007KT 5SM -SHSN BR BKN025=



000
FTUS41 KGYX 260935 AAA
TAFPWM
TAF AMD
KPWM 260935Z 2610/2706 28005KT P6SM BKN200
     FM261600 02010KT 6SM -RASN OVC035
     FM262000 02016G26KT 1/2SM SN FG OVC004
     FM270300 36018G28KT 2SM -SN BLSN BR OVC004=



000
FTUS41 KGYX 260935 AAA
TAFAUG
TAF AMD
KAUG 260935Z 2610/2706 28005KT P6SM BKN200
     FM261700 01010KT 4SM -SN BR OVC035
     FM262000 01015G25KT 1/2SM SN FG OVC003
     FM270400 36018G28KT 2SM -SN BLSN BR OVC003=



000
FTUS41 KGYX 260935 AAA
TAFLEB
TAF AMD
KLEB 260935Z 2610/2706 VRB03KT P6SM BKN200
     FM261600 36005KT 3SM -SN BR OVC015
     FM261900 36008G16KT 1/2SM SN FG OVC006
     FM270200 35010G20KT 3SM -SN BLSN BR OVC012=



000
FTUS41 KGYX 260935 AAA
TAFPSM
TAF AMD
KPSM 260935Z 2610/2706 VRB04KT P6SM OVC150
     FM261500 02008KT 6SM -RASN OVC030
     FM261800 02012G22KT 1/2SM SNRA FG OVC005
     FM262200 01016G28KT 1/2SM SN FG OVC004
     FM270200 36018G28KT 2SM -SN BR OVC006=



000
FTUS41 KGYX 260935 AAA
TAFCON
TAF AMD
KCON 260935Z 2610/2706 VRB03KT P6SM BKN200
     FM261600 01008KT 2SM -SN BR OVC015
     FM261900 36012KT 1/4SM +SN FG VV003
     FM270300 34016G28KT 2SM -SN BLSN BR OVC005=



000
FTUS41 KGYX 260538
TAFPWM
TAF
KPWM 260538Z 2606/2706 25005KT P6SM BKN200
     FM261600 02010KT 6SM -RASN OVC035
     FM262000 02016G26KT 1/2SM SN FG OVC004
     FM270300 36018G28KT 2SM -SN BLSN BR OVC004=



000
FTUS41 KGYX 260538
TAFAUG
TAF
KAUG 260538Z 2606/2706 27005KT P6SM BKN200
     FM261700 01010KT 4SM -SN BR OVC035
     FM262000 01015G25KT 1/2SM SN FG OVC003
     FM270400 36018G28KT 2SM -SN BLSN BR OVC003=



000
FTUS41 KGYX 260538
TAFPSM
TAF
KPSM 260538Z 2606/2706 VRB04KT P6SM OVC200
     FM261500 02008KT 6SM -RASN OVC030
     FM261800 02012G22KT 1/2SM SNRA FG OVC005
     FM262200 01016G28KT 1/2SM SN FG OVC004
     FM270200 36018G28KT 2SM -SN BR OVC006=



000
FTUS41 KGYX 260538
TAFLEB
TAF
KLEB 260538Z 2606/2706 VRB03KT P6SM BKN200
     FM261600 36005KT 3SM -SN BR OVC015
     FM261900 36008G16KT 1/2SM SN FG OVC006
     FM270200 35010G20KT 3SM -SN BLSN BR OVC012=



000
FTUS41 KGYX 260538
TAFCON
TAF
KCON 260538Z 2606/2706 VRB03KT P6SM BKN200
     FM261600 01008KT 2SM -SN BR OVC015
     FM261900 36012KT 1/4SM +SN FG VV003
     FM270300 34016G28KT 2SM -SN BLSN BR OVC005=



000
FTUS41 KGYX 260255 AAA
TAFCON
TAF AMD
KCON 260255Z 2603/2624 27007KT P6SM SKC
     FM260700 02005KT P6SM OVC060
     FM261200 VRB03KT 3SM -SN OVC050
     FM261500 02004KT 2SM -SN OVC025
     FM262000 04013KT 1/4SM SN FG OVC003=



000
FTUS41 KGYX 260255 AAA
TAFPWM
TAF AMD
KPWM 260255Z 2603/2624 27010KT P6SM BKN150
     FM261100 02005KT P6SM OVC060
     FM261500 02009KT 4SM -SNRA OVC040
     FM262000 04013KT 1/2SM SN FG OVC003=



000
FTUS41 KGYX 260255 AAA
TAFAUG
TAF AMD
KAUG 260255Z 2603/2624 24010KT P6SM BKN200
     FM260800 02005KT P6SM OVC060
     FM261500 36005KT 5SM -SHSN OVC060
     FM261800 01008KT 4SM -SN HZ OVC015
     FM262000 02011G21KT 1/2SM SN FG OVC003=



000
FTUS41 KGYX 260255 AAA
TAFPSM
TAF AMD
KPSM 260255Z 2603/2624 28007KT P6SM OVC200
     FM260800 02005KT P6SM OVC060
     FM261300 VRB03KT 5SM -RASN OVC050
     FM261800 02010G20KT 1/2SM RASN OVC005=



000
FTUS41 KGYX 260255 AAA
TAFLEB
TAF AMD
KLEB 260255Z 2603/2624 17003KT P6SM SKC
     FM260600 02005KT P6SM OVC060
     FM261500 36003KT 3SM -SN OVC040
     FM262000 03009G16KT 1/2SM SN FG OVC005=



000
FTUS41 KGYX 252330
TAFPSM
TAF
KPSM 252330Z 2600/2624 28007KT P6SM OVC200
     FM261300 VRB03KT 5SM -RASN OVC050
     FM261800 02010G20KT 1/2SM RASN OVC005=



000
FTUS41 KGYX 252330
TAFAUG
TAF
KAUG 252330Z 2600/2624 24010KT P6SM SKC
     FM261500 36005KT 5SM -SHSN OVC060
     FM261800 01008KT 4SM -SN HZ OVC015
     FM262000 02011G21KT 1/2SM SN FG OVC003=



000
FTUS41 KGYX 252330
TAFPWM
TAF
KPWM 252330Z 2600/2624 27010KT P6SM BKN150
     FM261500 02009KT 4SM -SNRA OVC040
     FM262000 04013KT 1/2SM SN FG OVC003=



000
FTUS41 KGYX 252330
TAFCON
TAF
KCON 252330Z 2600/2624 27007KT P6SM SKC
     FM261200 VRB03KT 3SM -SN OVC050
     FM261500 02004KT 2SM -SN OVC025
     FM262000 04013KT 1/4SM SN FG OVC003=



000
FTUS41 KGYX 252330
TAFLEB
TAF
KLEB 252330Z 2600/2624 17003KT P6SM SKC
     FM261500 36003KT 3SM -SN OVC040
     FM262000 03009G16KT 1/2SM SN FG OVC005=



000
FTUS41 KGYX 251724
TAFLEB
TAF
KLEB 251724Z 2518/2618 20010G20KT P6SM BKN250
     FM252200 21008KT P6SM BKN250
     FM261500 36003KT 3SM -SN OVC040=



000
FTUS41 KGYX 251724
TAFPWM
TAF
KPWM 251724Z 2518/2618 24012KT P6SM BKN250
     FM261500 02009KT 4SM -SNRA OVC040=



000
FTUS41 KGYX 251724
TAFCON
TAF
KCON 251724Z 2518/2618 24010KT P6SM BKN250
     FM261200 VRB03KT 3SM -SN OVC050
     FM261500 02004KT 2SM -SN OVC025=



000
FTUS41 KGYX 251724
TAFPSM
TAF
KPSM 251724Z 2518/2618 24010KT P6SM OVC200
     FM261200 VRB03KT 5SM -RASN OVC050
     FM261500 02005KT 3SM -SN OVC025=



000
FTUS41 KGYX 251724
TAFAUG
TAF
KAUG 251724Z 2518/2618 24010KT P6SM BKN250
     FM261500 36005KT 5SM -SHSN OVC060=



000
FTUS41 KGYX 251122
TAFPSM
TAF
KPSM 251122Z 2512/2612 25008KT P6SM OVC250
     FM261100 30003KT P6SM OVC100=



000
FTUS41 KGYX 251122
TAFPWM
TAF
KPWM 251122Z 2512/2612 23005KT P6SM BKN250=



000
FTUS41 KGYX 251122
TAFLEB
TAF
KLEB 251122Z 2512/2612 21010G16KT P6SM BKN250
     FM260100 23008KT P6SM BKN250
     FM261100 33003KT P6SM OVC100=



000
FTUS41 KGYX 251122
TAFCON
TAF
KCON 251122Z 2512/2612 27009KT P6SM BKN250
     FM261100 31003KT P6SM OVC100=



000
FTUS41 KGYX 251122
TAFAUG
TAF
KAUG 251122Z 2512/2612 24005KT P6SM BKN250=



000
FTUS41 KGYX 250936 AAB
TAFAUG
TAF AMD
KAUG 250936Z 2510/2606 21007KT P6SM SKC
     FM251200 25009G16KT P6SM FEW250
     FM252000 24005KT P6SM SCT250=



000
FTUS41 KGYX 250936 AAA
TAFPWM
TAF AMD
KPWM 250936Z 2510/2606 19005KT P6SM SKC
     FM252300 23005KT P6SM SCT250=



000
FTUS41 KGYX 250936 AAA
TAFPSM
TAF AMD
KPSM 250936Z 2510/2606 17006KT P6SM BKN250
     FM251500 26011G20KT P6SM SCT250
     FM252200 24006KT P6SM BKN250=



000
FTUS41 KGYX 250936 AAA
TAFCON
TAF AMD
KCON 250936Z 2510/2606 24005KT P6SM SKC
     FM251600 26010G18KT P6SM FEW250
     FM252000 27006KT P6SM FEW250=



000
FTUS41 KGYX 250936 AAA
TAFLEB
TAF AMD
KLEB 250936Z 2510/2606 19008KT P6SM SKC
     FM251500 25011G18KT P6SM FEW250
     FM251800 23008KT P6SM BKN250=



000
FTUS41 KGYX 250701 AAA
TAFAUG
TAF AMD
KAUG 250701Z 2507/2606 20008KT P6SM SCT003
     FM250900 20005KT 4SM BR SCT003 OVC015
     FM251200 25009G16KT P6SM FEW250
     FM252000 24005KT P6SM SCT250=



000
FTUS41 KGYX 250534
TAFPWM
TAF
KPWM 250534Z 2506/2606 22010G20KT P6SM SCT250
     FM252300 23005KT P6SM SCT250=



000
FTUS41 KGYX 250534
TAFAUG
TAF
KAUG 250534Z 2506/2606 20008KT 5SM BR SCT003
     FM250900 20005KT 4SM BR SCT003 OVC015
     FM251200 25009G16KT P6SM FEW250
     FM252000 24005KT P6SM SCT250=



000
FTUS41 KGYX 250534
TAFPSM
TAF
KPSM 250534Z 2506/2606 23007KT P6SM SCT250
     FM251500 26011G20KT P6SM SCT250
     FM252200 24006KT P6SM BKN250=



000
FTUS41 KGYX 250534
TAFLEB
TAF
KLEB 250534Z 2506/2606 19015G22KT P6SM BKN250
     FM251500 25011G18KT P6SM FEW250
     FM251800 23008KT P6SM BKN250=



000
FTUS41 KGYX 250534
TAFCON
TAF
KCON 250534Z 2506/2606 21012G20KT P6SM SCT250
     FM251600 26010G18KT P6SM FEW250
     FM252000 27006KT P6SM FEW250=



000
FTUS41 KGYX 250245 AAA
TAFPSM
TAF AMD
KPSM 250245Z 2503/2524 20012G21KT 6SM BR SCT020 BKN040
     FM250600 23009KT P6SM BKN050
     FM251500 26012G20KT P6SM FEW250=



000
FTUS41 KGYX 250245 AAA
TAFPWM
TAF AMD
KPWM 250245Z 2503/2524 20012KT 6SM BR SCT015 BKN035
     FM250600 21009KT P6SM BKN050
     FM251500 25012G20KT P6SM FEW250=



000
FTUS41 KGYX 250244 AAA
TAFAUG
TAF AMD
KAUG 250244Z 2503/2524 19010G21KT 6SM BR SCT008 BKN035
      TEMPO 2503/2506 BKN007
     FM250600 21008KT P6SM BKN050
     FM251500 25010G18KT P6SM FEW250=



000
FTUS41 KGYX 242331
TAFAUG
TAF
KAUG 242331Z 2500/2524 20012G21KT 6SM BR SCT008 BKN035
      TEMPO 2500/2502 BKN003
     FM250600 21008KT P6SM BKN050
     FM251500 25010G18KT P6SM FEW250=



000
FTUS41 KGYX 242331
TAFCON
TAF
KCON 242331Z 2500/2524 19010G18KT P6SM SCT015 BKN035
     FM250600 22007KT P6SM BKN050
     FM251500 23010G18KT P6SM FEW250=



000
FTUS41 KGYX 242331
TAFPWM
TAF
KPWM 242331Z 2500/2524 20012G21KT 6SM BR SCT015 BKN035
      TEMPO 2500/2503 BKN015
     FM250600 21009KT P6SM BKN050
     FM251500 25012G20KT P6SM FEW250=



000
FTUS41 KGYX 242331
TAFLEB
TAF
KLEB 242331Z 2500/2524 19015G25KT 6SM BR SCT008 BKN035
     FM250600 21009KT P6SM BKN050
     FM251500 25012G20KT P6SM FEW250=



000
FTUS41 KGYX 242331
TAFPSM
TAF
KPSM 242331Z 2500/2524 20012G21KT 6SM BR BKN020
     FM250600 23009KT P6SM BKN050
     FM251500 26012G20KT P6SM FEW250=



000
FTUS41 KGYX 242150 AAB
TAFAUG
TAF AMD
KAUG 242150Z 2422/2518 18013G20KT 3/4SM BR OVC002 WS020/20050KT
     FM250000 19014KT 2SM BR BKN008
     FM250600 22010KT P6SM BKN025=



000
FTUS41 KGYX 242150 AAB
TAFAUG
TAF AMD
KAUG 242150Z 2422/2518 18013G20KT 3/4SM BR OVC002 WS020/20050KT
     FM250000 19014KT 2SM BR BKN008
     FM250600 22010KT P6SM BKN025=



000
FTUS41 KGYX 242038 AAA
TAFAUG
TAF AMD
KAUG 242038Z 2421/2518 18013G20KT 1/4SM FG OVC002 WS020/20050KT
     FM250000 19014KT 2SM BR BKN008
     FM250600 22010KT P6SM BKN025=



000
FTUS41 KGYX 242037 AAA
TAFPWM
TAF AMD
KPWM 242037Z 2421/2518 19017G30KT 1/2SM FG OVC002 WS020/21050KT
      TEMPO 2422/2424 2SM BR OVC004
     FM250000 20014KT 4SM BR BKN008
     FM250600 22010KT P6SM BKN025=



000
FTUS41 KGYX 241927 AAA
TAFPSM
TAF AMD
KPSM 241927Z 2419/2518 16010KT P6SM SCT004 BKN015 WS020/21045KT
     FM242200 19009KT 3SM BR BKN008
     FM250300 21010KT P6SM BKN025=



000
FTUS41 KGYX 241926 AAA
TAFLEB
TAF AMD
KLEB 241926Z 2419/2518 19013G20KT P6SM SCT010 OVC050 WS020/21045KT
     FM242100 20012KT P6SM BKN035=



000
FTUS41 KGYX 241720
TAFAUG
TAF
KAUG 241720Z 2418/2518 18013G28KT 2SM -RA BR OVC006 WS020/20050KT
     FM250000 19014KT 4SM BR BKN008
     FM250600 22010KT P6SM BKN025=



000
FTUS41 KGYX 241720
TAFPWM
TAF
KPWM 241720Z 2418/2518 19017G30KT 2SM -RA BR OVC004 WS020/21050KT
     FM242200 20014KT 4SM BR BKN008
     FM250300 22010KT P6SM BKN025=



000
FTUS41 KGYX 241720
TAFPSM
TAF
KPSM 241720Z 2418/2518 16010KT 2SM -RA BR OVC004 WS020/21045KT
     FM242100 19009KT 3SM BR BKN008
     FM250000 21010KT P6SM BKN025=



000
FTUS41 KGYX 241720
TAFLEB
TAF
KLEB 241720Z 2418/2518 20008KT P6SM OVC010 WS020/21045KT
     FM242100 20012KT P6SM BKN025
     FM250300 22010KT P6SM BKN035=



000
FTUS41 KGYX 241720
TAFCON
TAF
KCON 241720Z 2418/2518 16010KT 3SM BR SCT007 OVC012 WS020/21045KT
     FM242100 19010KT 3SM BR BKN025
     FM250300 21010KT P6SM BKN035=



000
FTUS41 KGYX 241652 AAC
TAFLEB
TAF AMD
KLEB 241652Z 2417/2512 19005KT P6SM OVC010
     FM241800 20012G22KT P6SM OVC025=



000
FTUS41 KGYX 241458 AAA
TAFCON
TAF AMD
KCON 241458Z 2415/2512 16010G20KT 2SM -RA BR OVC007 WS020/17060KT
     FM241800 18009KT 3SM BR OVC003=



000
FTUS41 KGYX 241457 AAA
TAFPWM
TAF AMD
KPWM 241457Z 2415/2512 16017G30KT 2SM RA BR OVC007 WS020/17060KT
     FM241700 17012G18KT 4SM -DZ BR OVC003
     FM241900 19009KT 4SM BR OVC003=



000
FTUS41 KGYX 241457 AAA
TAFAUG
TAF AMD
KAUG 241457Z 2415/2512 17013G26KT 1SM RA BR OVC003 WS020/17060KT
     FM241800 16010G18KT 4SM -DZ BR OVC003
     FM242000 19009KT 4SM BR OVC003=



000
FTUS41 KGYX 241456 AAA
TAFPSM
TAF AMD
KPSM 241456Z 2415/2512 16020G30KT 3SM -RA BR OVC004
     FM241800 18009KT 3SM BR OVC003=



000
FTUS41 KGYX 241454 AAB
TAFLEB
TAF AMD
KLEB 241454Z 2415/2512 19005KT 5SM -RA BR OVC015 WS020/17060KT
     FM241500 20012G22KT P6SM OVC025=



000
FTUS41 KGYX 241220 AAA
TAFLEB
TAF AMD
KLEB 241220Z 2412/2512 19005KT 5SM -RA BR FEW015 OVC035
      WS020/17060KT
     FM241330 20012G22KT P6SM OVC035=



000
FTUS41 KGYX 241124
TAFAUG
TAF
KAUG 241124Z 2412/2512 16008KT 3SM -RA BR OVC003
     FM241400 14010KT 1SM RA BR OVC003 WS020/17060KT
     FM241800 16010G18KT 4SM -DZ BR OVC003
     FM242000 19009KT 4SM BR OVC003=



000
FTUS41 KGYX 241124
TAFCON
TAF
KCON 241124Z 2412/2512 00000KT 2SM RA BR OVC007 WS020/17060KT
     FM241600 15010G16KT 4SM -DZ BR OVC003
     FM241800 18009KT 3SM BR OVC003=



000
FTUS41 KGYX 241124
TAFPSM
TAF
KPSM 241124Z 2412/2512 13013KT 5SM -RA BR OVC004 WS020/17060KT
     FM241400 14012G20KT 2SM RA BR OVC003
     FM241600 16012G20KT 4SM -DZ BR OVC003
     FM241800 18009KT 3SM BR OVC003=



000
FTUS41 KGYX 241124
TAFPWM
TAF
KPWM 241124Z 2412/2512 13005KT 6SM -RA OVC008
     FM241300 14010KT 2SM RA BR OVC003 WS020/17060KT
     FM241700 17012G18KT 4SM -DZ BR OVC003
     FM241900 19009KT 4SM BR OVC003=



000
FTUS41 KGYX 241124
TAFLEB
TAF
KLEB 241124Z 2412/2512 15007G15KT 1SM -RA BR BKN015 OVC021
      WS020/17060KT
     FM241600 17008KT 4SM -DZ BR OVC003
     FM241800 20008KT 4SM BR OVC003=



000
FTUS41 KGYX 241010 AAB
TAFLEB
TAF AMD
KLEB 241010Z 2410/2506 00000KT 3SM -RA BR OVC025
     FM241100 12006KT 2SM RA BR OVC004 WS020/17060KT
     FM241600 17008KT 4SM -DZ BR OVC003
     FM241800 20008KT 4SM BR OVC003=



000
FTUS41 KGYX 241009 AAB
TAFCON
TAF AMD
KCON 241009Z 2410/2506 13003KT 4SM -RA OVC009
     FM241200 11008KT 3SM RA BR OVC003 WS020/17060KT
     FM241600 15010G16KT 4SM -DZ BR OVC003
     FM241800 18009KT 3SM BR OVC003=



000
FTUS41 KGYX 241009 AAB
TAFCON
TAF AMD
KCON 241009Z 2410/2506 13003KT 4SM -RA OVC009
     FM241200 11008KT 3SM RA BR OVC003 WS020/17060KT
     FM241600 15010G16KT 4SM -DZ BR OVC003
     FM241800 18009KT 3SM BR OVC003=



000
FTUS41 KGYX 241007 AAB
TAFPSM
TAF AMD
KPSM 241007Z 2410/2506 12005KT 6SM -RA BR OVC004
     FM241200 11008KT 4SM RA BR OVC003 WS020/17060KT
     FM241400 14012G20KT 2SM RA BR OVC003
     FM241600 16012G20KT 4SM -DZ BR OVC003
     FM241800 18009KT 3SM BR OVC003=



000
FTUS41 KGYX 241007 AAB
TAFPSM
TAF AMD
KPSM 241007Z 2410/2506 12005KT 6SM -RA BR OVC004
     FM241200 11008KT 4SM RA BR OVC003 WS020/17060KT
     FM241400 14012G20KT 2SM RA BR OVC003
     FM241600 16012G20KT 4SM -DZ BR OVC003
     FM241800 18009KT 3SM BR OVC003=



000
FTUS41 KGYX 240847 AAA
TAFPSM
TAF AMD
KPSM 240847Z 2409/2506 14005KT P6SM BKN050 OVC250
     FM241000 12005KT 6SM -RA BR OVC025
     FM241200 11008KT 4SM RA BR SCT003 OVC007 WS020/17060KT
     FM241400 14012G20KT 2SM RA BR OVC003
     FM241600 16012G20KT 4SM -DZ BR OVC003
     FM241800 18009KT 3SM BR OVC003=



000
FTUS41 KGYX 240847 AAA
TAFLEB
TAF AMD
KLEB 240847Z 2409/2506 00000KT P6SM SCT026 OVC035
     FM241100 12006KT 2SM RA BR OVC004 WS020/17060KT
     FM241600 17008KT 4SM -DZ BR OVC003
     FM241800 20008KT 4SM BR OVC003=



000
FTUS41 KGYX 240847 AAB
TAFAUG
TAF AMD
KAUG 240847Z 2409/2506 15007KT 1/4SM FG VV002
     FM241200 13005KT 1SM -RA BR OVC003
     FM241400 14010KT 1SM RA BR OVC003 WS020/17060KT
     FM241800 16010G18KT 4SM -DZ BR OVC003
     FM242000 19009KT 4SM BR OVC003=



000
FTUS41 KGYX 240847 AAA
TAFPWM
TAF AMD
KPWM 240847Z 2409/2506 00000KT 4SM BR SKC
     FM241100 13004KT 4SM -RA BR SCT007 OVC015
     FM241300 14010KT 2SM RA BR OVC003 WS020/17060KT
     FM241700 17012G18KT 4SM -DZ BR OVC003
     FM241900 19009KT 4SM BR OVC003=



000
FTUS41 KGYX 240847 AAA
TAFCON
TAF AMD
KCON 240847Z 2409/2506 00000KT P6SM OVC045
     FM241000 13005KT 6SM -RA OVC015
     FM241200 11008KT 3SM RA BR OVC003 WS020/17060KT
     FM241600 15010G16KT 4SM -DZ BR OVC003
     FM241800 18009KT 3SM BR OVC003=



000
FTUS41 KGYX 240721 AAA
TAFAUG
TAF AMD
KAUG 240721Z 2407/2506 VRB03KT 3SM BR FEW050 OVC100
     FM241200 13005KT 3SM -RA BR SCT007 OVC015
     FM241400 14010KT 2SM RA BR OVC003 WS020/17060KT
     FM241800 16010G18KT 4SM -DZ BR OVC003
     FM242000 19009KT 4SM BR OVC003=



000
FTUS41 KGYX 240520
TAFLEB
TAF
KLEB 240520Z 2406/2506 00000KT 6SM BR BKN100
     FM240900 00000KT 4SM -RA BR OVC015
     FM241100 12006KT 2SM RA BR OVC004 WS020/17060KT
     FM241600 17008KT 4SM -DZ BR OVC003
     FM241800 20008KT 4SM BR OVC003=



000
FTUS41 KGYX 240520
TAFAUG
TAF
KAUG 240520Z 2406/2506 VRB03KT 6SM BR BKN060
     FM241200 13005KT 4SM -RA BR SCT007 OVC015
     FM241400 14010KT 2SM RA BR OVC003 WS020/17060KT
     FM241800 16010G18KT 4SM -DZ BR OVC003
     FM242000 19009KT 4SM BR OVC003=



000
FTUS41 KGYX 240520
TAFPSM
TAF
KPSM 240520Z 2406/2506 15003KT P6SM SCT100
     FM241000 12005KT 6SM -RA BR OVC025
     FM241200 11008KT 4SM RA BR SCT003 OVC007 WS020/17060KT
     FM241400 14012G20KT 2SM RA BR OVC003
     FM241600 16012G20KT 4SM -DZ BR OVC003
     FM241800 18009KT 3SM BR OVC003=



000
FTUS41 KGYX 240520
TAFCON
TAF
KCON 240520Z 2406/2506 00000KT P6SM BKN100
     FM241000 13005KT 6SM -RA OVC015
     FM241200 11008KT 3SM RA BR OVC003 WS020/17060KT
     FM241600 15010G16KT 4SM -DZ BR OVC003
     FM241800 18009KT 3SM BR OVC003=



000
FTUS41 KGYX 240520
TAFPWM
TAF
KPWM 240520Z 2406/2506 VRB04KT P6SM BKN060 OVC090
     FM241100 13004KT 4SM -RA BR SCT007 OVC015
     FM241300 14010KT 2SM RA BR OVC003 WS020/17060KT
     FM241700 17012G18KT 4SM -DZ BR OVC003
     FM241900 19009KT 4SM BR OVC003=



000
FTUS41 KGYX 232323
TAFAUG
TAF
KAUG 232323Z 2400/2424 VRB03KT P6SM BKN050
     FM241000 13005KT 6SM -RA OVC015
     FM241300 13010KT 2SM RA BR OVC003 WS020/17060KT
     FM241900 17010G18KT 4SM -DZ BR OVC003=



000
FTUS41 KGYX 232323
TAFLEB
TAF
KLEB 232323Z 2400/2424 VRB03KT P6SM BKN050
     FM240800 15005KT 6SM -RA OVC015
     FM241000 13010KT 1SM RA BR OVC003 WS020/17060KT
     FM241800 19008KT 4SM -DZ BR OVC003=



000
FTUS41 KGYX 232323
TAFPSM
TAF
KPSM 232323Z 2400/2424 VRB03KT P6SM BKN050
     FM240900 13005KT 6SM -RA OVC015
     FM241200 13010KT 2SM RA BR OVC003 WS020/17060KT
     FM241600 16012G20KT 4SM -DZ BR OVC003=



000
FTUS41 KGYX 232323
TAFPWM
TAF
KPWM 232323Z 2400/2424 VRB03KT P6SM BKN050
     FM240900 13005KT 6SM -RA OVC015
     FM241300 13010KT 2SM RA BR OVC003 WS020/17060KT
     FM241800 15012G20KT 4SM -DZ BR OVC003=



000
FTUS41 KGYX 232323
TAFCON
TAF
KCON 232323Z 2400/2424 VRB03KT P6SM BKN050
     FM240800 13005KT 6SM -RA OVC015
     FM241100 13008KT 2SM RA BR OVC003 WS020/17060KT
     FM241600 15012KT 4SM -DZ BR OVC003=



000
FTUS41 KGYX 232028 AAA
TAFLEB
TAF AMD
KLEB 232028Z 2320/2418 20004KT P6SM SCT035 BKN080
     FM240800 VRB03KT 5SM -SHRA BR OVC015
     FM241100 17006KT 3SM -RA BR OVC005=



    US Dept of Commerce
    National Oceanic and Atmospheric Administration
    National Weather Service
    1325 East West Highway
    Silver Spring, MD 20910
    Page Author: NWS Internet Services Team
Disclaimer
Information Quality
Credits
Glossary
Privacy Policy
Freedom of Information Act (FOIA)
About Us
Career Opportunities